AAL1416 KPHL-KMCO
Flight info
| Callsign | AAL1416 |
|---|---|
| Flight time | 1h 57m |
| Altitude | 36000 |
| Route | OOD TEBEE HAYDO TRPOD Q409 CRPLR Q85 LPERD GTOUT1 |
| Aircraft | A321/M-SDE3FGHIRWY/LB1 |
Departure
| Time | 2026-04-25 19:07 |
|---|---|
| Airport | Philadelphia International Airport (KPHL) |
Arrival
| Time | 2026-04-25 21:04 |
|---|---|
| Airport | Orlando International Airport (KMCO) |
| Time | Latitude | Longitude | Altitude | Speed | Heading |
|---|---|---|---|---|---|
| 2026-04-25 18:22 | 39.87476 | -75.24311 | 26 ft | 0 kts | 278° |
| 2026-04-25 18:56 | 39.87476 | -75.24310 | 25 ft | 1 kts | 278° |
| 2026-04-25 18:57 | 39.87475 | -75.24280 | 29 ft | 4 kts | 250° |
| 2026-04-25 18:57 | 39.87488 | -75.24258 | 27 ft | 4 kts | 187° |
| 2026-04-25 18:57 | 39.87498 | -75.24257 | 29 ft | 0 kts | 165° |
| 2026-04-25 19:01 | 39.87486 | -75.24253 | 19 ft | 9 kts | 165° |
| 2026-04-25 19:01 | 39.87380 | -75.24231 | 25 ft | 14 kts | 181° |
| 2026-04-25 19:01 | 39.87311 | -75.24286 | 28 ft | 12 kts | 248° |
| 2026-04-25 19:02 | 39.87268 | -75.24494 | 25 ft | 19 kts | 255° |
| 2026-04-25 19:02 | 39.87233 | -75.24668 | 25 ft | 19 kts | 255° |
| 2026-04-25 19:02 | 39.87202 | -75.24823 | 25 ft | 17 kts | 256° |
| 2026-04-25 19:03 | 39.87167 | -75.25004 | 25 ft | 14 kts | 255° |
| 2026-04-25 19:03 | 39.87123 | -75.25222 | 25 ft | 17 kts | 256° |
| 2026-04-25 19:03 | 39.87096 | -75.25362 | 29 ft | 15 kts | 256° |
| 2026-04-25 19:04 | 39.86997 | -75.25521 | 30 ft | 10 kts | 242° |
| 2026-04-25 19:04 | 39.86961 | -75.25567 | 26 ft | 0 kts | 194° |
| 2026-04-25 19:05 | 39.86923 | -75.25566 | 27 ft | 14 kts | 166° |
| 2026-04-25 19:06 | 39.86883 | -75.25506 | 25 ft | 8 kts | 84° |
| 2026-04-25 19:06 | 39.86889 | -75.25468 | 28 ft | 0 kts | 75° |
| 2026-04-25 19:06 | 39.86940 | -75.25217 | 26 ft | 64 kts | 75° |
| 2026-04-25 19:07 | 39.87349 | -75.23137 | 173 ft | 152 kts | 76° |
| 2026-04-25 19:07 | 39.87615 | -75.21845 | 910 ft | 147 kts | 79° |
| 2026-04-25 19:08 | 39.86552 | -75.19811 | 1911 ft | 172 kts | 164° |
| 2026-04-25 19:08 | 39.85267 | -75.20066 | 2153 ft | 206 kts | 201° |
| 2026-04-25 19:09 | 39.80766 | -75.22432 | 3673 ft | 243 kts | 194° |
| 2026-04-25 19:09 | 39.80222 | -75.22659 | 3990 ft | 242 kts | 195° |
| 2026-04-25 19:09 | 39.75943 | -75.24520 | 6048 ft | 249 kts | 200° |
| 2026-04-25 19:10 | 39.74283 | -75.25277 | 6665 ft | 256 kts | 201° |
| 2026-04-25 19:10 | 39.72590 | -75.26062 | 7286 ft | 260 kts | 202° |
| 2026-04-25 19:10 | 39.70874 | -75.26866 | 7956 ft | 263 kts | 203° |
| 2026-04-25 19:10 | 39.69145 | -75.27680 | 8647 ft | 266 kts | 203° |
| 2026-04-25 19:11 | 39.67394 | -75.28505 | 9320 ft | 269 kts | 204° |
| 2026-04-25 19:11 | 39.65620 | -75.29342 | 9985 ft | 273 kts | 204° |
| 2026-04-25 19:11 | 39.63790 | -75.30162 | 10320 ft | 289 kts | 200° |
| 2026-04-25 19:11 | 39.61757 | -75.30666 | 10427 ft | 313 kts | 192° |
| 2026-04-25 19:12 | 39.59538 | -75.31072 | 10565 ft | 331 kts | 192° |
| 2026-04-25 19:12 | 39.57213 | -75.31493 | 10971 ft | 340 kts | 192° |
| 2026-04-25 19:12 | 39.54853 | -75.31912 | 11520 ft | 344 kts | 192° |
| 2026-04-25 19:12 | 39.52460 | -75.32337 | 12041 ft | 349 kts | 192° |
| 2026-04-25 19:13 | 39.50045 | -75.32768 | 12594 ft | 353 kts | 192° |
| 2026-04-25 19:13 | 39.47599 | -75.33207 | 13144 ft | 357 kts | 192° |
| 2026-04-25 19:13 | 39.45124 | -75.33656 | 13716 ft | 361 kts | 192° |
| 2026-04-25 19:13 | 39.42656 | -75.34103 | 14198 ft | 364 kts | 192° |
| 2026-04-25 19:14 | 39.40138 | -75.34558 | 14683 ft | 368 kts | 192° |
| 2026-04-25 19:14 | 39.39280 | -75.34713 | 14846 ft | 369 kts | 192° |
| 2026-04-25 19:14 | 39.35024 | -75.35477 | 15631 ft | 374 kts | 192° |
| 2026-04-25 19:14 | 39.32434 | -75.35942 | 16083 ft | 377 kts | 192° |
| 2026-04-25 19:15 | 39.29828 | -75.36412 | 16549 ft | 379 kts | 192° |
| 2026-04-25 19:15 | 39.27207 | -75.36887 | 17020 ft | 382 kts | 192° |
| 2026-04-25 19:15 | 39.24564 | -75.37366 | 17480 ft | 384 kts | 192° |
| 2026-04-25 19:15 | 39.21908 | -75.37845 | 17928 ft | 387 kts | 192° |
| 2026-04-25 19:16 | 39.19228 | -75.38326 | 18344 ft | 390 kts | 193° |
| 2026-04-25 19:16 | 39.16532 | -75.38806 | 18693 ft | 392 kts | 192° |
| 2026-04-25 19:16 | 39.13823 | -75.39285 | 19036 ft | 395 kts | 192° |
| 2026-04-25 19:16 | 39.11094 | -75.39767 | 19366 ft | 397 kts | 192° |
| 2026-04-25 19:17 | 39.08352 | -75.40252 | 19688 ft | 399 kts | 192° |
| 2026-04-25 19:17 | 39.05595 | -75.40743 | 20019 ft | 401 kts | 192° |
| 2026-04-25 19:17 | 39.02819 | -75.41239 | 20346 ft | 403 kts | 192° |
| 2026-04-25 19:17 | 39.00028 | -75.41736 | 20669 ft | 406 kts | 192° |
| 2026-04-25 19:18 | 38.98174 | -75.42064 | 20880 ft | 407 kts | 192° |
| 2026-04-25 19:18 | 38.94435 | -75.42728 | 21311 ft | 410 kts | 192° |
| 2026-04-25 19:18 | 38.92522 | -75.43069 | 21524 ft | 412 kts | 192° |
| 2026-04-25 19:18 | 38.88743 | -75.43739 | 21918 ft | 416 kts | 192° |
| 2026-04-25 19:19 | 38.85881 | -75.44243 | 22366 ft | 415 kts | 193° |
| 2026-04-25 19:19 | 38.83946 | -75.44584 | 22648 ft | 415 kts | 193° |
| 2026-04-25 19:19 | 38.81112 | -75.45083 | 23014 ft | 417 kts | 193° |
| 2026-04-25 19:19 | 38.79167 | -75.45427 | 23255 ft | 418 kts | 193° |
| 2026-04-25 19:20 | 38.75345 | -75.46102 | 23703 ft | 420 kts | 193° |
| 2026-04-25 19:20 | 38.72438 | -75.46617 | 23996 ft | 422 kts | 193° |
| 2026-04-25 19:20 | 38.69520 | -75.47134 | 24291 ft | 424 kts | 193° |
| 2026-04-25 19:20 | 38.66598 | -75.47652 | 24547 ft | 426 kts | 193° |
| 2026-04-25 19:21 | 38.63660 | -75.48171 | 24855 ft | 426 kts | 193° |
| 2026-04-25 19:21 | 38.57763 | -75.49213 | 25407 ft | 430 kts | 193° |
| 2026-04-25 19:21 | 38.54790 | -75.49735 | 25682 ft | 431 kts | 193° |
| 2026-04-25 19:22 | 38.51814 | -75.50254 | 25947 ft | 433 kts | 193° |
| 2026-04-25 19:22 | 38.48815 | -75.50779 | 26213 ft | 435 kts | 193° |
| 2026-04-25 19:22 | 38.42794 | -75.51835 | 26722 ft | 438 kts | 192° |
| 2026-04-25 19:23 | 38.39762 | -75.52361 | 26986 ft | 440 kts | 192° |
| 2026-04-25 19:23 | 38.33848 | -75.54143 | 27471 ft | 435 kts | 207° |
| 2026-04-25 19:23 | 38.31150 | -75.55839 | 27716 ft | 431 kts | 215° |
| 2026-04-25 19:24 | 38.28662 | -75.57954 | 27954 ft | 431 kts | 219° |
| 2026-04-25 19:24 | 38.26191 | -75.60125 | 28190 ft | 432 kts | 218° |
| 2026-04-25 19:24 | 38.21213 | -75.64469 | 28634 ft | 435 kts | 218° |
| 2026-04-25 19:25 | 38.16197 | -75.68821 | 29035 ft | 438 kts | 218° |
| 2026-04-25 19:25 | 38.13676 | -75.71006 | 29216 ft | 439 kts | 218° |
| 2026-04-25 19:25 | 38.11146 | -75.73192 | 29390 ft | 440 kts | 218° |
| 2026-04-25 19:26 | 38.08641 | -75.75355 | 29568 ft | 441 kts | 218° |
| 2026-04-25 19:26 | 38.06074 | -75.77573 | 29820 ft | 440 kts | 218° |
| 2026-04-25 19:26 | 38.03581 | -75.79727 | 30060 ft | 439 kts | 218° |
| 2026-04-25 19:26 | 38.01057 | -75.81911 | 30255 ft | 438 kts | 219° |
| 2026-04-25 19:27 | 37.98537 | -75.84095 | 30424 ft | 439 kts | 219° |
| 2026-04-25 19:27 | 37.96833 | -75.85570 | 30561 ft | 439 kts | 219° |
| 2026-04-25 19:27 | 37.93495 | -75.88450 | 30811 ft | 439 kts | 219° |
| 2026-04-25 19:27 | 37.90971 | -75.90622 | 31007 ft | 438 kts | 219° |
| 2026-04-25 19:28 | 37.88451 | -75.92789 | 31211 ft | 438 kts | 219° |
| 2026-04-25 19:28 | 37.85931 | -75.94955 | 31413 ft | 438 kts | 219° |
| 2026-04-25 19:28 | 37.83412 | -75.97118 | 31628 ft | 437 kts | 219° |
| 2026-04-25 19:28 | 37.80891 | -75.99286 | 31805 ft | 437 kts | 219° |
| 2026-04-25 19:29 | 37.78378 | -76.01446 | 31978 ft | 438 kts | 219° |
| 2026-04-25 19:29 | 37.75859 | -76.03612 | 32167 ft | 438 kts | 219° |
| 2026-04-25 19:29 | 37.73338 | -76.05779 | 32362 ft | 438 kts | 219° |
| 2026-04-25 19:29 | 37.70813 | -76.07940 | 32561 ft | 438 kts | 219° |
| 2026-04-25 19:30 | 37.68326 | -76.10062 | 32767 ft | 437 kts | 219° |
| 2026-04-25 19:30 | 37.65803 | -76.12211 | 32980 ft | 437 kts | 219° |
| 2026-04-25 19:30 | 37.63282 | -76.14355 | 33181 ft | 437 kts | 219° |
| 2026-04-25 19:30 | 37.60770 | -76.16492 | 33438 ft | 435 kts | 219° |
| 2026-04-25 19:31 | 37.58231 | -76.18567 | 33688 ft | 434 kts | 217° |
| 2026-04-25 19:31 | 37.55654 | -76.20562 | 33905 ft | 434 kts | 216° |
| 2026-04-25 19:31 | 37.53056 | -76.22506 | 34080 ft | 434 kts | 216° |
| 2026-04-25 19:31 | 37.50449 | -76.24433 | 34239 ft | 434 kts | 216° |
| 2026-04-25 19:32 | 37.47847 | -76.26363 | 34403 ft | 434 kts | 216° |
| 2026-04-25 19:32 | 37.45254 | -76.28300 | 34564 ft | 433 kts | 216° |
| 2026-04-25 19:32 | 37.42664 | -76.30247 | 34728 ft | 433 kts | 216° |
| 2026-04-25 19:32 | 37.40952 | -76.31541 | 34834 ft | 433 kts | 217° |
| 2026-04-25 19:33 | 37.37500 | -76.34158 | 35009 ft | 433 kts | 216° |
| 2026-04-25 19:33 | 37.34915 | -76.36121 | 35127 ft | 434 kts | 217° |
| 2026-04-25 19:33 | 37.32326 | -76.38081 | 35262 ft | 434 kts | 216° |
| 2026-04-25 19:33 | 37.29734 | -76.40036 | 35400 ft | 435 kts | 216° |
| 2026-04-25 19:34 | 37.27140 | -76.41989 | 35542 ft | 435 kts | 216° |
| 2026-04-25 19:34 | 37.24581 | -76.43916 | 35687 ft | 435 kts | 217° |
| 2026-04-25 19:34 | 37.21986 | -76.45866 | 35838 ft | 434 kts | 217° |
| 2026-04-25 19:34 | 37.19397 | -76.47809 | 35882 ft | 433 kts | 217° |
| 2026-04-25 19:35 | 37.14227 | -76.51695 | 35878 ft | 433 kts | 216° |
| 2026-04-25 19:35 | 37.09073 | -76.55557 | 35859 ft | 431 kts | 216° |
| 2026-04-25 19:36 | 37.03922 | -76.59403 | 35860 ft | 431 kts | 216° |
| 2026-04-25 19:36 | 36.98779 | -76.63243 | 35861 ft | 431 kts | 216° |
| 2026-04-25 19:37 | 36.93627 | -76.67091 | 35843 ft | 431 kts | 216° |
| 2026-04-25 19:37 | 36.88471 | -76.70932 | 35844 ft | 432 kts | 216° |
| 2026-04-25 19:38 | 36.83304 | -76.74770 | 35849 ft | 432 kts | 216° |
| 2026-04-25 19:38 | 36.78140 | -76.78611 | 35850 ft | 432 kts | 216° |
| 2026-04-25 19:39 | 36.73004 | -76.82427 | 35845 ft | 433 kts | 216° |
| 2026-04-25 19:39 | 36.67827 | -76.86259 | 35843 ft | 433 kts | 216° |
| 2026-04-25 19:40 | 36.62644 | -76.90078 | 35850 ft | 433 kts | 216° |
| 2026-04-25 19:40 | 36.57465 | -76.93898 | 35853 ft | 432 kts | 216° |
| 2026-04-25 19:41 | 36.52291 | -76.97718 | 35849 ft | 431 kts | 216° |
| 2026-04-25 19:41 | 36.48835 | -77.00258 | 35827 ft | 432 kts | 215° |
| 2026-04-25 19:42 | 36.41949 | -77.05308 | 35820 ft | 432 kts | 215° |
| 2026-04-25 19:42 | 36.36776 | -77.09105 | 35821 ft | 432 kts | 215° |
| 2026-04-25 19:43 | 36.31597 | -77.12907 | 35828 ft | 432 kts | 215° |
| 2026-04-25 19:43 | 36.26414 | -77.16691 | 35815 ft | 433 kts | 215° |
| 2026-04-25 19:44 | 36.21213 | -77.20473 | 35817 ft | 434 kts | 215° |
| 2026-04-25 19:44 | 36.16011 | -77.24267 | 35828 ft | 434 kts | 215° |
| 2026-04-25 19:45 | 36.10814 | -77.28050 | 35838 ft | 433 kts | 215° |
| 2026-04-25 19:45 | 36.05648 | -77.31803 | 35824 ft | 433 kts | 216° |
| 2026-04-25 19:46 | 36.00847 | -77.36200 | 35826 ft | 429 kts | 222° |
| 2026-04-25 19:46 | 35.96148 | -77.40757 | 35821 ft | 430 kts | 222° |
| 2026-04-25 19:47 | 35.91435 | -77.45316 | 35821 ft | 430 kts | 222° |
| 2026-04-25 19:47 | 35.86713 | -77.49875 | 35826 ft | 431 kts | 222° |
| 2026-04-25 19:48 | 35.81987 | -77.54416 | 35823 ft | 431 kts | 222° |
| 2026-04-25 19:48 | 35.77248 | -77.58961 | 35830 ft | 432 kts | 222° |
| 2026-04-25 19:49 | 35.74117 | -77.61974 | 35840 ft | 432 kts | 222° |
| 2026-04-25 19:49 | 35.67818 | -77.68025 | 35855 ft | 431 kts | 222° |
| 2026-04-25 19:50 | 35.60715 | -77.74810 | 35840 ft | 431 kts | 222° |
| 2026-04-25 19:51 | 35.55983 | -77.79343 | 35856 ft | 431 kts | 222° |
| 2026-04-25 19:51 | 35.51242 | -77.83875 | 35848 ft | 432 kts | 222° |
| 2026-04-25 19:52 | 35.46485 | -77.88400 | 35851 ft | 432 kts | 221° |
| 2026-04-25 19:52 | 35.41730 | -77.92915 | 35855 ft | 432 kts | 221° |
| 2026-04-25 19:53 | 35.36972 | -77.97431 | 35858 ft | 432 kts | 221° |
| 2026-04-25 19:53 | 35.32216 | -78.01939 | 35866 ft | 432 kts | 221° |
| 2026-04-25 19:54 | 35.27462 | -78.06430 | 35869 ft | 431 kts | 221° |
| 2026-04-25 19:54 | 35.22708 | -78.10920 | 35867 ft | 431 kts | 221° |
| 2026-04-25 19:55 | 35.17959 | -78.15399 | 35867 ft | 431 kts | 221° |
| 2026-04-25 19:55 | 35.13238 | -78.19847 | 35857 ft | 432 kts | 221° |
| 2026-04-25 19:56 | 35.08475 | -78.24332 | 35858 ft | 432 kts | 221° |
| 2026-04-25 19:56 | 35.03711 | -78.28817 | 35865 ft | 432 kts | 221° |
| 2026-04-25 19:57 | 34.98940 | -78.33295 | 35869 ft | 433 kts | 221° |
| 2026-04-25 19:57 | 34.94155 | -78.37768 | 35855 ft | 433 kts | 221° |
| 2026-04-25 19:58 | 34.89399 | -78.42210 | 35849 ft | 434 kts | 221° |
| 2026-04-25 19:58 | 34.84593 | -78.46703 | 35849 ft | 435 kts | 221° |
| 2026-04-25 19:59 | 34.79791 | -78.51183 | 35858 ft | 435 kts | 221° |
| 2026-04-25 19:59 | 34.74976 | -78.55667 | 35879 ft | 436 kts | 221° |
| 2026-04-25 20:00 | 34.70162 | -78.60146 | 35861 ft | 436 kts | 221° |
| 2026-04-25 20:00 | 34.65331 | -78.64622 | 35862 ft | 437 kts | 221° |
| 2026-04-25 20:01 | 34.58061 | -78.71354 | 35877 ft | 438 kts | 221° |
| 2026-04-25 20:01 | 34.53226 | -78.75827 | 35872 ft | 437 kts | 221° |
| 2026-04-25 20:02 | 34.48395 | -78.80286 | 35879 ft | 436 kts | 221° |
| 2026-04-25 20:02 | 34.43577 | -78.84713 | 35861 ft | 437 kts | 220° |
| 2026-04-25 20:03 | 34.38629 | -78.88991 | 35866 ft | 438 kts | 218° |
| 2026-04-25 20:03 | 34.33581 | -78.93164 | 35862 ft | 439 kts | 218° |
| 2026-04-25 20:04 | 34.28540 | -78.97341 | 35877 ft | 439 kts | 218° |
| 2026-04-25 20:04 | 34.23522 | -79.01556 | 35854 ft | 439 kts | 218° |
| 2026-04-25 20:05 | 34.18500 | -79.05781 | 35860 ft | 440 kts | 218° |
| 2026-04-25 20:05 | 34.13513 | -79.09971 | 35882 ft | 439 kts | 218° |
| 2026-04-25 20:06 | 34.09308 | -79.13492 | 35885 ft | 439 kts | 218° |
| 2026-04-25 20:06 | 34.04294 | -79.17682 | 35892 ft | 438 kts | 218° |
| 2026-04-25 20:07 | 33.98473 | -79.22551 | 35898 ft | 438 kts | 218° |
| 2026-04-25 20:07 | 33.94281 | -79.26054 | 35898 ft | 438 kts | 218° |
| 2026-04-25 20:08 | 33.89296 | -79.30208 | 35900 ft | 438 kts | 218° |
| 2026-04-25 20:08 | 33.84278 | -79.34373 | 35898 ft | 438 kts | 218° |
| 2026-04-25 20:09 | 33.79260 | -79.38542 | 35898 ft | 438 kts | 218° |
| 2026-04-25 20:09 | 33.74242 | -79.42719 | 35873 ft | 439 kts | 218° |
| 2026-04-25 20:10 | 33.69220 | -79.46884 | 35882 ft | 439 kts | 218° |
| 2026-04-25 20:10 | 33.64192 | -79.51042 | 35891 ft | 439 kts | 218° |
| 2026-04-25 20:11 | 33.59163 | -79.55198 | 35896 ft | 439 kts | 218° |
| 2026-04-25 20:11 | 33.54131 | -79.59351 | 35898 ft | 438 kts | 218° |
| 2026-04-25 20:12 | 33.49103 | -79.63492 | 35881 ft | 439 kts | 218° |
| 2026-04-25 20:12 | 33.44913 | -79.66940 | 35882 ft | 440 kts | 218° |
| 2026-04-25 20:13 | 33.39029 | -79.71771 | 35884 ft | 441 kts | 218° |
| 2026-04-25 20:13 | 33.33966 | -79.75930 | 35885 ft | 441 kts | 218° |
| 2026-04-25 20:14 | 33.28893 | -79.80086 | 35895 ft | 442 kts | 218° |
| 2026-04-25 20:14 | 33.23820 | -79.84229 | 35885 ft | 442 kts | 218° |
| 2026-04-25 20:15 | 33.18745 | -79.88370 | 35886 ft | 442 kts | 218° |
| 2026-04-25 20:15 | 33.13668 | -79.92503 | 35892 ft | 442 kts | 218° |
| 2026-04-25 20:16 | 33.08593 | -79.96639 | 35887 ft | 442 kts | 218° |
| 2026-04-25 20:16 | 33.03518 | -80.00775 | 35903 ft | 442 kts | 218° |
| 2026-04-25 20:17 | 32.98471 | -80.04868 | 35904 ft | 442 kts | 217° |
| 2026-04-25 20:17 | 32.93383 | -80.08991 | 35900 ft | 442 kts | 218° |
| 2026-04-25 20:18 | 32.88301 | -80.13106 | 35899 ft | 441 kts | 217° |
| 2026-04-25 20:18 | 32.83223 | -80.17213 | 35911 ft | 441 kts | 218° |
| 2026-04-25 20:19 | 32.78137 | -80.21315 | 35911 ft | 440 kts | 218° |
| 2026-04-25 20:19 | 32.73104 | -80.25373 | 35911 ft | 440 kts | 218° |
| 2026-04-25 20:20 | 32.68044 | -80.29446 | 35910 ft | 440 kts | 218° |
| 2026-04-25 20:20 | 32.62974 | -80.33514 | 35904 ft | 440 kts | 218° |
| 2026-04-25 20:21 | 32.57899 | -80.37576 | 35904 ft | 440 kts | 217° |
| 2026-04-25 20:21 | 32.52661 | -80.41365 | 35907 ft | 442 kts | 213° |
| 2026-04-25 20:22 | 32.48179 | -80.44301 | 35891 ft | 443 kts | 212° |
| 2026-04-25 20:22 | 32.41860 | -80.48410 | 35893 ft | 443 kts | 212° |
| 2026-04-25 20:23 | 32.36492 | -80.52013 | 35899 ft | 443 kts | 213° |
| 2026-04-25 20:23 | 32.31130 | -80.55644 | 35910 ft | 443 kts | 213° |
| 2026-04-25 20:24 | 32.25777 | -80.59255 | 35894 ft | 442 kts | 213° |
| 2026-04-25 20:24 | 32.20422 | -80.62850 | 35914 ft | 443 kts | 213° |
| 2026-04-25 20:25 | 32.15061 | -80.66441 | 35917 ft | 443 kts | 213° |
| 2026-04-25 20:25 | 32.09724 | -80.70011 | 35914 ft | 443 kts | 213° |
| 2026-04-25 20:26 | 32.04357 | -80.73594 | 35909 ft | 443 kts | 213° |
| 2026-04-25 20:26 | 31.98990 | -80.77171 | 35888 ft | 443 kts | 212° |
| 2026-04-25 20:27 | 31.93613 | -80.80753 | 35864 ft | 445 kts | 212° |
| 2026-04-25 20:27 | 31.88220 | -80.84339 | 35864 ft | 445 kts | 212° |
| 2026-04-25 20:28 | 31.82821 | -80.87927 | 35870 ft | 445 kts | 212° |
| 2026-04-25 20:28 | 31.77423 | -80.91503 | 35868 ft | 446 kts | 213° |
| 2026-04-25 20:29 | 31.72019 | -80.95084 | 35873 ft | 446 kts | 213° |
| 2026-04-25 20:29 | 31.66623 | -80.98663 | 35882 ft | 446 kts | 213° |
| 2026-04-25 20:30 | 31.61221 | -81.02244 | 35889 ft | 446 kts | 213° |
| 2026-04-25 20:30 | 31.55831 | -81.05755 | 35893 ft | 446 kts | 212° |
| 2026-04-25 20:31 | 31.50319 | -81.09118 | 35904 ft | 447 kts | 210° |
| 2026-04-25 20:31 | 31.44780 | -81.12434 | 35889 ft | 448 kts | 210° |
| 2026-04-25 20:32 | 31.39243 | -81.15799 | 35894 ft | 448 kts | 211° |
| 2026-04-25 20:32 | 31.33704 | -81.19170 | 35898 ft | 449 kts | 210° |
| 2026-04-25 20:33 | 31.28124 | -81.22482 | 35892 ft | 450 kts | 210° |
| 2026-04-25 20:33 | 31.23471 | -81.25219 | 35892 ft | 450 kts | 210° |
| 2026-04-25 20:34 | 31.16537 | -81.27996 | 35871 ft | 457 kts | 190° |
| 2026-04-25 20:34 | 31.13389 | -81.28247 | 35868 ft | 460 kts | 177° |
| 2026-04-25 20:34 | 31.10190 | -81.28195 | 35862 ft | 460 kts | 182° |
| 2026-04-25 20:35 | 31.03778 | -81.28187 | 35871 ft | 462 kts | 183° |
| 2026-04-25 20:35 | 30.97339 | -81.28209 | 35880 ft | 463 kts | 182° |
| 2026-04-25 20:36 | 30.90893 | -81.28201 | 35891 ft | 464 kts | 182° |
| 2026-04-25 20:36 | 30.84459 | -81.28182 | 35901 ft | 464 kts | 182° |
| 2026-04-25 20:37 | 30.77990 | -81.28165 | 35910 ft | 465 kts | 182° |
| 2026-04-25 20:37 | 30.74744 | -81.28158 | 35804 ft | 470 kts | 182° |
| 2026-04-25 20:37 | 30.71430 | -81.28151 | 35557 ft | 480 kts | 182° |
| 2026-04-25 20:38 | 30.68061 | -81.28142 | 35310 ft | 487 kts | 182° |
| 2026-04-25 20:38 | 30.64657 | -81.28128 | 35050 ft | 490 kts | 181° |
| 2026-04-25 20:38 | 30.61256 | -81.28112 | 34325 ft | 485 kts | 181° |
| 2026-04-25 20:38 | 30.57923 | -81.28044 | 33349 ft | 473 kts | 180° |
| 2026-04-25 20:39 | 30.54658 | -81.27854 | 33062 ft | 473 kts | 178° |
| 2026-04-25 20:39 | 30.51351 | -81.27584 | 32652 ft | 478 kts | 177° |
| 2026-04-25 20:39 | 30.48042 | -81.27276 | 32185 ft | 476 kts | 177° |
| 2026-04-25 20:39 | 30.46967 | -81.27174 | 32035 ft | 475 kts | 177° |
| 2026-04-25 20:40 | 30.41511 | -81.26687 | 31269 ft | 470 kts | 178° |
| 2026-04-25 20:40 | 30.38259 | -81.26427 | 30814 ft | 467 kts | 178° |
| 2026-04-25 20:40 | 30.34984 | -81.26183 | 30355 ft | 464 kts | 178° |
| 2026-04-25 20:40 | 30.31816 | -81.25957 | 29903 ft | 461 kts | 178° |
| 2026-04-25 20:41 | 30.28630 | -81.25729 | 29420 ft | 457 kts | 178° |
| 2026-04-25 20:41 | 30.25471 | -81.25498 | 28984 ft | 454 kts | 178° |
| 2026-04-25 20:41 | 30.22332 | -81.25264 | 28545 ft | 450 kts | 178° |
| 2026-04-25 20:41 | 30.19221 | -81.25030 | 28112 ft | 446 kts | 178° |
| 2026-04-25 20:42 | 30.16141 | -81.24799 | 27687 ft | 442 kts | 178° |
| 2026-04-25 20:42 | 30.13084 | -81.24569 | 27253 ft | 438 kts | 178° |
| 2026-04-25 20:42 | 30.10050 | -81.24341 | 26882 ft | 435 kts | 178° |
| 2026-04-25 20:42 | 30.07038 | -81.24114 | 26475 ft | 432 kts | 178° |
| 2026-04-25 20:43 | 30.04052 | -81.23890 | 26054 ft | 429 kts | 178° |
| 2026-04-25 20:43 | 30.01079 | -81.23668 | 25638 ft | 425 kts | 178° |
| 2026-04-25 20:43 | 29.98141 | -81.23451 | 25226 ft | 422 kts | 178° |
| 2026-04-25 20:43 | 29.95226 | -81.23237 | 24817 ft | 418 kts | 178° |
| 2026-04-25 20:44 | 29.92339 | -81.23027 | 24413 ft | 414 kts | 178° |
| 2026-04-25 20:44 | 29.89469 | -81.22819 | 24016 ft | 411 kts | 178° |
| 2026-04-25 20:44 | 29.86627 | -81.22608 | 23615 ft | 408 kts | 178° |
| 2026-04-25 20:44 | 29.83807 | -81.22396 | 23173 ft | 404 kts | 178° |
| 2026-04-25 20:45 | 29.81000 | -81.22183 | 22777 ft | 402 kts | 178° |
| 2026-04-25 20:45 | 29.78210 | -81.21970 | 22390 ft | 401 kts | 178° |
| 2026-04-25 20:45 | 29.75431 | -81.21760 | 22003 ft | 399 kts | 178° |
| 2026-04-25 20:45 | 29.72666 | -81.21556 | 21616 ft | 397 kts | 178° |
| 2026-04-25 20:46 | 29.69913 | -81.21354 | 21231 ft | 395 kts | 178° |
| 2026-04-25 20:46 | 29.67177 | -81.21134 | 20847 ft | 394 kts | 178° |
| 2026-04-25 20:46 | 29.64449 | -81.20898 | 20463 ft | 392 kts | 178° |
| 2026-04-25 20:46 | 29.61739 | -81.20658 | 20083 ft | 390 kts | 178° |
| 2026-04-25 20:47 | 29.59074 | -81.20423 | 19708 ft | 389 kts | 178° |
| 2026-04-25 20:47 | 29.56377 | -81.20187 | 19331 ft | 387 kts | 178° |
| 2026-04-25 20:47 | 29.53697 | -81.19955 | 18954 ft | 386 kts | 178° |
| 2026-04-25 20:47 | 29.51020 | -81.19726 | 18599 ft | 385 kts | 178° |
| 2026-04-25 20:48 | 29.48356 | -81.19500 | 18230 ft | 384 kts | 178° |
| 2026-04-25 20:48 | 29.45701 | -81.19274 | 17814 ft | 382 kts | 178° |
| 2026-04-25 20:48 | 29.43060 | -81.19047 | 17444 ft | 380 kts | 178° |
| 2026-04-25 20:48 | 29.40435 | -81.18820 | 17077 ft | 377 kts | 178° |
| 2026-04-25 20:49 | 29.37829 | -81.18599 | 16710 ft | 374 kts | 178° |
| 2026-04-25 20:49 | 29.35233 | -81.18379 | 16318 ft | 372 kts | 178° |
| 2026-04-25 20:49 | 29.32660 | -81.18159 | 15957 ft | 370 kts | 178° |
| 2026-04-25 20:49 | 29.30102 | -81.17939 | 15590 ft | 367 kts | 178° |
| 2026-04-25 20:50 | 29.27563 | -81.17719 | 15239 ft | 365 kts | 178° |
| 2026-04-25 20:50 | 29.25038 | -81.17497 | 14887 ft | 363 kts | 178° |
| 2026-04-25 20:50 | 29.22531 | -81.17275 | 14534 ft | 361 kts | 178° |
| 2026-04-25 20:50 | 29.20038 | -81.17044 | 14183 ft | 359 kts | 176° |
| 2026-04-25 20:51 | 29.17595 | -81.16439 | 13774 ft | 361 kts | 164° |
| 2026-04-25 20:51 | 29.15237 | -81.15445 | 13192 ft | 361 kts | 162° |
| 2026-04-25 20:51 | 29.12896 | -81.14438 | 12762 ft | 356 kts | 162° |
| 2026-04-25 20:51 | 29.10582 | -81.13443 | 12318 ft | 352 kts | 162° |
| 2026-04-25 20:52 | 29.08338 | -81.12478 | 12189 ft | 338 kts | 162° |
| 2026-04-25 20:52 | 29.07625 | -81.12172 | 12145 ft | 334 kts | 162° |
| 2026-04-25 20:52 | 29.04087 | -81.10661 | 11855 ft | 316 kts | 163° |
| 2026-04-25 20:52 | 29.02026 | -81.09840 | 11612 ft | 312 kts | 164° |
| 2026-04-25 20:53 | 29.00003 | -81.09078 | 11346 ft | 308 kts | 165° |
| 2026-04-25 20:53 | 28.97963 | -81.08336 | 11067 ft | 306 kts | 168° |
| 2026-04-25 20:53 | 28.95882 | -81.07943 | 10651 ft | 304 kts | 177° |
| 2026-04-25 20:53 | 28.93782 | -81.07711 | 10224 ft | 302 kts | 177° |
| 2026-04-25 20:54 | 28.91691 | -81.07473 | 9826 ft | 300 kts | 177° |
| 2026-04-25 20:54 | 28.89635 | -81.07354 | 9295 ft | 292 kts | 187° |
| 2026-04-25 20:54 | 28.87673 | -81.07821 | 8651 ft | 285 kts | 203° |
| 2026-04-25 20:54 | 28.85943 | -81.08849 | 8146 ft | 275 kts | 217° |
| 2026-04-25 20:55 | 28.84411 | -81.10086 | 7696 ft | 266 kts | 216° |
| 2026-04-25 20:55 | 28.83419 | -81.10875 | 7409 ft | 258 kts | 216° |
| 2026-04-25 20:55 | 28.82003 | -81.11991 | 7307 ft | 241 kts | 216° |
| 2026-04-25 20:55 | 28.80167 | -81.13442 | 7208 ft | 239 kts | 216° |
| 2026-04-25 20:56 | 28.79263 | -81.14157 | 7138 ft | 239 kts | 216° |
| 2026-04-25 20:56 | 28.77460 | -81.15587 | 6992 ft | 237 kts | 218° |
| 2026-04-25 20:56 | 28.76234 | -81.16783 | 6761 ft | 229 kts | 223° |
| 2026-04-25 20:56 | 28.75434 | -81.17593 | 6551 ft | 226 kts | 222° |
| 2026-04-25 20:57 | 28.74276 | -81.18769 | 6257 ft | 220 kts | 223° |
| 2026-04-25 20:57 | 28.73163 | -81.19898 | 5994 ft | 208 kts | 222° |
| 2026-04-25 20:57 | 28.72108 | -81.20967 | 5739 ft | 198 kts | 223° |
| 2026-04-25 20:57 | 28.71102 | -81.21984 | 5484 ft | 189 kts | 222° |
| 2026-04-25 20:58 | 28.70121 | -81.22974 | 5254 ft | 187 kts | 222° |
| 2026-04-25 20:58 | 28.69143 | -81.23961 | 5028 ft | 189 kts | 222° |
| 2026-04-25 20:58 | 28.68161 | -81.24952 | 4805 ft | 189 kts | 222° |
| 2026-04-25 20:58 | 28.67176 | -81.25947 | 4548 ft | 189 kts | 222° |
| 2026-04-25 20:59 | 28.66206 | -81.26925 | 4316 ft | 185 kts | 222° |
| 2026-04-25 20:59 | 28.65205 | -81.27853 | 4054 ft | 187 kts | 211° |
| 2026-04-25 20:59 | 28.64017 | -81.28381 | 3797 ft | 187 kts | 191° |
| 2026-04-25 20:59 | 28.62709 | -81.28449 | 3556 ft | 188 kts | 180° |
| 2026-04-25 21:00 | 28.61415 | -81.28434 | 3314 ft | 183 kts | 181° |
| 2026-04-25 21:00 | 28.60571 | -81.28424 | 3159 ft | 176 kts | 180° |
| 2026-04-25 21:00 | 28.57820 | -81.28396 | 2663 ft | 166 kts | 181° |
| 2026-04-25 21:01 | 28.56664 | -81.28384 | 2441 ft | 165 kts | 180° |
| 2026-04-25 21:01 | 28.55514 | -81.28372 | 2221 ft | 166 kts | 180° |
| 2026-04-25 21:01 | 28.54361 | -81.28360 | 2007 ft | 165 kts | 180° |
| 2026-04-25 21:01 | 28.53210 | -81.28348 | 1801 ft | 166 kts | 180° |
| 2026-04-25 21:02 | 28.52058 | -81.28337 | 1585 ft | 165 kts | 181° |
| 2026-04-25 21:02 | 28.50918 | -81.28325 | 1370 ft | 160 kts | 180° |
| 2026-04-25 21:02 | 28.49837 | -81.28314 | 1156 ft | 150 kts | 180° |
| 2026-04-25 21:02 | 28.48806 | -81.28303 | 993 ft | 146 kts | 180° |
| 2026-04-25 21:03 | 28.47797 | -81.28280 | 773 ft | 144 kts | 178° |
| 2026-04-25 21:03 | 28.46800 | -81.28253 | 589 ft | 138 kts | 181° |
| 2026-04-25 21:03 | 28.45836 | -81.28264 | 447 ft | 141 kts | 180° |
| 2026-04-25 21:03 | 28.44830 | -81.28269 | 295 ft | 147 kts | 180° |
| 2026-04-25 21:04 | 28.43827 | -81.28254 | 125 ft | 141 kts | 182° |
| 2026-04-25 21:04 | 28.42929 | -81.28256 | 103 ft | 112 kts | 178° |
| 2026-04-25 21:04 | 28.42428 | -81.28240 | 109 ft | 33 kts | 188° |
| 2026-04-25 21:04 | 28.42302 | -81.28296 | 108 ft | 11 kts | 225° |
| 2026-04-25 21:05 | 28.42306 | -81.28348 | 107 ft | 6 kts | 323° |
| 2026-04-25 21:05 | 28.42337 | -81.28362 | 108 ft | 5 kts | 356° |
| 2026-04-25 21:05 | 28.42369 | -81.28363 | 108 ft | 5 kts | 1° |
| 2026-04-25 21:05 | 28.42401 | -81.28362 | 107 ft | 4 kts | 1° |
| 2026-04-25 21:06 | 28.42424 | -81.28362 | 107 ft | 0 kts | 1° |
| 2026-04-25 21:06 | 28.42425 | -81.28362 | 107 ft | 2 kts | 1° |
| 2026-04-25 21:06 | 28.42457 | -81.28362 | 107 ft | 11 kts | 356° |
| 2026-04-25 21:07 | 28.42484 | -81.28479 | 106 ft | 19 kts | 251° |
| 2026-04-25 21:07 | 28.42434 | -81.28643 | 106 ft | 22 kts | 251° |
| 2026-04-25 21:07 | 28.42382 | -81.28808 | 107 ft | 21 kts | 250° |
| 2026-04-25 21:07 | 28.42330 | -81.28979 | 108 ft | 24 kts | 250° |
| 2026-04-25 21:08 | 28.42289 | -81.29165 | 108 ft | 24 kts | 266° |
| 2026-04-25 21:08 | 28.42283 | -81.29363 | 104 ft | 25 kts | 268° |
| 2026-04-25 21:08 | 28.42288 | -81.29525 | 101 ft | 19 kts | 273° |
| 2026-04-25 21:08 | 28.42289 | -81.29665 | 101 ft | 15 kts | 291° |
| 2026-04-25 21:09 | 28.42441 | -81.29702 | 102 ft | 10 kts | 0° |
| 2026-04-25 21:09 | 28.42552 | -81.29704 | 102 ft | 18 kts | 352° |
| 2026-04-25 21:09 | 28.42598 | -81.29782 | 102 ft | 12 kts | 274° |
| 2026-04-25 21:10 | 28.42608 | -81.29863 | 102 ft | 10 kts | 293° |
| 2026-04-25 21:10 | 28.42638 | -81.29925 | 103 ft | 7 kts | 293° |
| 2026-04-25 21:10 | 28.42634 | -81.29974 | 103 ft | 5 kts | 247° |
| 2026-04-25 21:10 | 28.42625 | -81.29994 | 103 ft | 2 kts | 242° |
| 2026-04-25 21:11 | 28.42625 | -81.29995 | 103 ft | 0 kts | 242° |